sensor_id;sensor_type;location;lat;lon;timestamp;pressure;altitude;pressure_sealevel;temperature;humidity
42003;BME280;27693;50.506;30.832;2023-11-21T00:01:03;99338.55;;;0.11;77.84
42003;BME280;27693;50.506;30.832;2023-11-21T00:02:06;99341.97;;;0.10;77.96
42003;BME280;27693;50.506;30.832;2023-11-21T00:03:09;99351.45;;;-0.01;77.80
42003;BME280;27693;50.506;30.832;2023-11-21T00:04:13;99351.45;;;-0.01;77.84
42003;BME280;27693;50.506;30.832;2023-11-21T00:05:17;99349.71;;;0.01;77.92
42003;BME280;27693;50.506;30.832;2023-11-21T00:06:22;99354.83;;;0.01;78.05
42003;BME280;27693;50.506;30.832;2023-11-21T00:07:24;99349.70;;;0.04;78.32
42003;BME280;27693;50.506;30.832;2023-11-21T00:08:28;99349.70;;;0.04;78.32
42003;BME280;27693;50.506;30.832;2023-11-21T00:09:32;99353.10;;;0.06;78.28
42003;BME280;27693;50.506;30.832;2023-11-21T00:10:35;99351.41;;;0.05;78.09
42003;BME280;27693;50.506;30.832;2023-11-21T00:11:39;99358.17;;;0.09;78.19
42003;BME280;27693;50.506;30.832;2023-11-21T00:12:42;99350.47;;;0.11;78.07
42003;BME280;27693;50.506;30.832;2023-11-21T00:13:45;99351.34;;;0.11;78.09
42003;BME280;27693;50.506;30.832;2023-11-21T00:14:49;99347.92;;;0.12;78.18
42003;BME280;27693;50.506;30.832;2023-11-21T00:15:52;99347.92;;;0.12;78.07
42003;BME280;27693;50.506;30.832;2023-11-21T00:16:54;99339.39;;;0.12;78.16
42003;BME280;27693;50.506;30.832;2023-11-21T00:17:58;99338.50;;;0.14;78.03
42003;BME280;27693;50.506;30.832;2023-11-21T00:19:00;99340.23;;;0.14;78.06
42003;BME280;27693;50.506;30.832;2023-11-21T00:20:03;99342.77;;;0.15;77.98
42003;BME280;27693;50.506;30.832;2023-11-21T00:21:08;99339.34;;;0.17;77.96
42003;BME280;27693;50.506;30.832;2023-11-21T00:22:17;99348.70;;;0.19;77.88
42003;BME280;27693;50.506;30.832;2023-11-21T00:23:20;99345.28;;;0.20;77.83
42003;BME280;27693;50.506;30.832;2023-11-21T00:24:23;99340.19;;;0.19;77.67
42003;BME280;27693;50.506;30.832;2023-11-21T00:25:27;99341.02;;;0.19;77.45
42003;BME280;27693;50.506;30.832;2023-11-21T00:26:30;99343.55;;;0.24;77.49
42003;BME280;27693;50.506;30.832;2023-11-21T00:27:36;99346.11;;;0.24;77.50
42003;BME280;27693;50.506;30.832;2023-11-21T00:28:43;99342.64;;;0.28;77.43
42003;BME280;27693;50.506;30.832;2023-11-21T00:29:45;99346.06;;;0.28;77.48
42003;BME280;27693;50.506;30.832;2023-11-21T00:30:48;99342.71;;;0.23;77.53
42003;BME280;27693;50.506;30.832;2023-11-21T00:31:50;99341.84;;;0.23;77.47
42003;BME280;27693;50.506;30.832;2023-11-21T00:32:53;99354.64;;;0.23;77.50
42003;BME280;27693;50.506;30.832;2023-11-21T00:33:55;99342.70;;;0.22;77.39
42003;BME280;27693;50.506;30.832;2023-11-21T00:34:57;99340.14;;;0.22;77.31
42003;BME280;27693;50.506;30.832;2023-11-21T00:36:01;99347.82;;;0.22;77.27
42003;BME280;27693;50.506;30.832;2023-11-21T00:37:04;99346.13;;;0.21;77.22
42003;BME280;27693;50.506;30.832;2023-11-21T00:38:06;99350.39;;;0.23;76.98
42003;BME280;27693;50.506;30.832;2023-11-21T00:39:11;99346.11;;;0.24;76.99
42003;BME280;27693;50.506;30.832;2023-11-21T00:40:14;99350.39;;;0.23;77.04
42003;BME280;27693;50.506;30.832;2023-11-21T00:41:17;99339.33;;;0.20;77.29
42003;BME280;27693;50.506;30.832;2023-11-21T00:42:20;99346.16;;;0.18;77.07
42003;BME280;27693;50.506;30.832;2023-11-21T00:43:23;99357.24;;;0.20;77.10
42003;BME280;27693;50.506;30.832;2023-11-21T00:44:26;99348.70;;;0.19;77.03
42003;BME280;27693;50.506;30.832;2023-11-21T00:45:30;99355.63;;;0.08;76.90
42003;BME280;27693;50.506;30.832;2023-11-21T00:46:33;99363.39;;;0.00;76.92
42003;BME280;27693;50.506;30.832;2023-11-21T00:47:36;99349.76;;;-0.02;76.92
42003;BME280;27693;50.506;30.832;2023-11-21T00:48:40;99346.41;;;-0.10;77.11
42003;BME280;27693;50.506;30.832;2023-11-21T00:49:43;99346.41;;;-0.10;77.11
42003;BME280;27693;50.506;30.832;2023-11-21T00:50:46;99349.77;;;-0.05;77.12
42003;BME280;27693;50.506;30.832;2023-11-21T00:51:49;99349.82;;;-0.11;77.47
42003;BME280;27693;50.506;30.832;2023-11-21T00:52:52;99346.46;;;-0.17;77.87
42003;BME280;27693;50.506;30.832;2023-11-21T00:53:55;99349.89;;;-0.19;78.01
42003;BME280;27693;50.506;30.832;2023-11-21T00:54:58;99356.70;;;-0.20;77.92
42003;BME280;27693;50.506;30.832;2023-11-21T00:56:06;99357.52;;;-0.16;77.91
42003;BME280;27693;50.506;30.832;2023-11-21T00:57:11;99360.10;;;-0.18;77.99
42003;BME280;27693;50.506;30.832;2023-11-21T00:58:14;99359.27;;;-0.18;78.28
42003;BME280;27693;50.506;30.832;2023-11-21T00:59:17;99357.55;;;-0.18;78.29
42003;BME280;27693;50.506;30.832;2023-11-21T01:00:19;99358.44;;;-0.22;78.25
42003;BME280;27693;50.506;30.832;2023-11-21T01:01:22;99361.81;;;-0.20;78.18
42003;BME280;27693;50.506;30.832;2023-11-21T01:02:26;99369.48;;;-0.20;78.26
42003;BME280;27693;50.506;30.832;2023-11-21T01:03:28;99371.22;;;-0.22;78.23
42003;BME280;27693;50.506;30.832;2023-11-21T01:04:30;99372.04;;;-0.20;78.23
42003;BME280;27693;50.506;30.832;2023-11-21T01:05:35;99379.70;;;-0.17;78.17
42003;BME280;27693;50.506;30.832;2023-11-21T01:06:37;99378.83;;;-0.14;78.49
42003;BME280;27693;50.506;30.832;2023-11-21T01:07:40;99379.66;;;-0.10;78.65
42003;BME280;27693;50.506;30.832;2023-11-21T01:08:43;99376.20;;;-0.06;78.67
42003;BME280;27693;50.506;30.832;2023-11-21T01:09:46;99376.20;;;-0.06;78.67
42003;BME280;27693;50.506;30.832;2023-11-21T01:10:49;99371.92;;;-0.04;78.38
42003;BME280;27693;50.506;30.832;2023-11-21T01:11:52;99380.45;;;-0.05;78.14
42003;BME280;27693;50.506;30.832;2023-11-21T01:12:55;99377.90;;;-0.05;78.32
42003;BME280;27693;50.506;30.832;2023-11-21T01:13:58;99373.61;;;-0.02;78.43
42003;BME280;27693;50.506;30.832;2023-11-21T01:15:03;99383.84;;;0.00;78.55
42003;BME280;27693;50.506;30.832;2023-11-21T01:16:07;99376.98;;;0.02;78.50
42003;BME280;27693;50.506;30.832;2023-11-21T01:17:10;99381.22;;;0.08;78.36
42003;BME280;27693;50.506;30.832;2023-11-21T01:18:12;99379.49;;;0.08;78.14
42003;BME280;27693;50.506;30.832;2023-11-21T01:19:15;99376.94;;;0.08;78.16
42003;BME280;27693;50.506;30.832;2023-11-21T01:20:18;99383.75;;;0.09;78.10
42003;BME280;27693;50.506;30.832;2023-11-21T01:21:22;99376.92;;;0.11;78.00
42003;BME280;27693;50.506;30.832;2023-11-21T01:22:25;99369.27;;;0.08;77.78
42003;BME280;27693;50.506;30.832;2023-11-21T01:23:29;99380.33;;;0.13;77.62
42003;BME280;27693;50.506;30.832;2023-11-21T01:24:32;99376.92;;;0.11;77.44
42003;BME280;27693;50.506;30.832;2023-11-21T01:25:35;99382.88;;;0.13;77.36
42003;BME280;27693;50.506;30.832;2023-11-21T01:26:37;99386.27;;;0.14;77.24
42003;BME280;27693;50.506;30.832;2023-11-21T01:27:41;99383.73;;;0.12;77.03
42003;BME280;27693;50.506;30.832;2023-11-21T01:28:45;99379.45;;;0.13;77.05
42003;BME280;27693;50.506;30.832;2023-11-21T01:29:47;99386.30;;;0.12;77.11
42003;BME280;27693;50.506;30.832;2023-11-21T01:30:51;99382.84;;;0.17;77.39
42003;BME280;27693;50.506;30.832;2023-11-21T01:31:54;99382.84;;;0.17;77.39
42003;BME280;27693;50.506;30.832;2023-11-21T01:32:57;99374.28;;;0.19;77.25
42003;BME280;27693;50.506;30.832;2023-11-21T01:33:59;99378.52;;;0.22;76.92
42003;BME280;27693;50.506;30.832;2023-11-21T01:35:04;99376.81;;;0.24;76.79
42003;BME280;27693;50.506;30.832;2023-11-21T01:36:09;99375.09;;;0.26;76.55
42003;BME280;27693;50.506;30.832;2023-11-21T01:37:12;99375.95;;;0.25;76.57
42003;BME280;27693;50.506;30.832;2023-11-21T01:38:15;99372.53;;;0.26;76.80
42003;BME280;27693;50.506;30.832;2023-11-21T01:39:19;99369.98;;;0.26;76.71
42003;BME280;27693;50.506;30.832;2023-11-21T01:40:24;99380.20;;;0.26;76.85
42003;BME280;27693;50.506;30.832;2023-11-21T01:41:27;99374.22;;;0.25;76.76
42003;BME280;27693;50.506;30.832;2023-11-21T01:42:30;99369.12;;;0.27;76.55
42003;BME280;27693;50.506;30.832;2023-11-21T01:43:33;99372.53;;;0.26;76.36
42003;BME280;27693;50.506;30.832;2023-11-21T01:44:38;99370.83;;;0.25;76.53
42003;BME280;27693;50.506;30.832;2023-11-21T01:45:41;99364.88;;;0.23;76.58
42003;BME280;27693;50.506;30.832;2023-11-21T01:46:43;99370.86;;;0.23;76.58
42003;BME280;27693;50.506;30.832;2023-11-21T01:47:46;99375.16;;;0.20;76.56
42003;BME280;27693;50.506;30.832;2023-11-21T01:48:49;99371.75;;;0.18;76.48
42003;BME280;27693;50.506;30.832;2023-11-21T01:49:51;99373.46;;;0.15;76.54
42003;BME280;27693;50.506;30.832;2023-11-21T01:50:55;99368.39;;;0.12;76.77
42003;BME280;27693;50.506;30.832;2023-11-21T01:51:59;99372.64;;;0.12;76.82
42003;BME280;27693;50.506;30.832;2023-11-21T01:53:03;99375.20;;;0.13;76.80
42003;BME280;27693;50.506;30.832;2023-11-21T01:54:06;99372.66;;;0.13;76.77
42003;BME280;27693;50.506;30.832;2023-11-21T01:55:11;99376.87;;;0.14;76.79
42003;BME280;27693;50.506;30.832;2023-11-21T01:56:19;99374.33;;;0.16;76.75
42003;BME280;27693;50.506;30.832;2023-11-21T01:57:23;99375.16;;;0.20;76.79
42003;BME280;27693;50.506;30.832;2023-11-21T01:58:27;99373.45;;;0.19;76.64
42003;BME280;27693;50.506;30.832;2023-11-21T01:59:34;99376.84;;;0.19;76.63
42003;BME280;27693;50.506;30.832;2023-11-21T02:00:36;99376.01;;;0.19;76.73
42003;BME280;27693;50.506;30.832;2023-11-21T02:01:41;99378.59;;;0.17;76.83
42003;BME280;27693;50.506;30.832;2023-11-21T02:02:49;99378.58;;;0.15;76.93
42003;BME280;27693;50.506;30.832;2023-11-21T02:03:49;99378.58;;;0.15;76.77
42003;BME280;27693;50.506;30.832;2023-11-21T02:04:52;99383.70;;;0.15;76.55
42003;BME280;27693;50.506;30.832;2023-11-21T02:05:55;99378.58;;;0.15;76.36
42003;BME280;27693;50.506;30.832;2023-11-21T02:06:58;99386.27;;;0.14;76.53
42003;BME280;27693;50.506;30.832;2023-11-21T02:08:00;99388.86;;;0.12;76.70
42003;BME280;27693;50.506;30.832;2023-11-21T02:09:05;99391.39;;;0.14;76.72
42003;BME280;27693;50.506;30.832;2023-11-21T02:10:09;99397.39;;;0.11;76.78
42003;BME280;27693;50.506;30.832;2023-11-21T02:11:12;99393.97;;;0.12;76.82
42003;BME280;27693;50.506;30.832;2023-11-21T02:12:15;99393.98;;;0.09;76.86
42003;BME280;27693;50.506;30.832;2023-11-21T02:13:18;99395.70;;;0.09;77.00
42003;BME280;27693;50.506;30.832;2023-11-21T02:14:21;99397.40;;;0.08;77.22
42003;BME280;27693;50.506;30.832;2023-11-21T02:15:24;99394.84;;;0.08;77.07
42003;BME280;27693;50.506;30.832;2023-11-21T02:16:28;99399.09;;;0.09;76.96
42003;BME280;27693;50.506;30.832;2023-11-21T02:17:33;99394.84;;;0.08;76.84
42003;BME280;27693;50.506;30.832;2023-11-21T02:18:36;99399.97;;;0.10;76.99
42003;BME280;27693;50.506;30.832;2023-11-21T02:19:39;99402.50;;;0.11;76.96
42003;BME280;27693;50.506;30.832;2023-11-21T02:20:42;99410.16;;;0.13;76.75
42003;BME280;27693;50.506;30.832;2023-11-21T02:21:45;99409.33;;;0.12;76.66
42003;BME280;27693;50.506;30.832;2023-11-21T02:22:57;99404.20;;;0.12;76.66
42003;BME280;27693;50.506;30.832;2023-11-21T02:24:00;99409.30;;;0.14;76.55
42003;BME280;27693;50.506;30.832;2023-11-21T02:25:04;99411.02;;;0.13;76.51
42003;BME280;27693;50.506;30.832;2023-11-21T02:26:07;99398.27;;;0.09;76.60
42003;BME280;27693;50.506;30.832;2023-11-21T02:27:10;99398.27;;;0.09;76.60
42003;BME280;27693;50.506;30.832;2023-11-21T02:28:14;99402.52;;;0.08;76.58
42003;BME280;27693;50.506;30.832;2023-11-21T02:29:19;99410.21;;;0.07;76.47
42003;BME280;27693;50.506;30.832;2023-11-21T02:30:24;99406.80;;;0.05;76.56
42003;BME280;27693;50.506;30.832;2023-11-21T02:31:34;99414.50;;;0.03;76.56
42003;BME280;27693;50.506;30.832;2023-11-21T02:32:36;99394.08;;;0.00;76.52
42003;BME280;27693;50.506;30.832;2023-11-21T02:33:41;99405.17;;;-0.01;76.56
42003;BME280;27693;50.506;30.832;2023-11-21T02:34:44;99404.32;;;-0.03;76.60
42003;BME280;27693;50.506;30.832;2023-11-21T02:35:46;99402.66;;;-0.07;76.72
42003;BME280;27693;50.506;30.832;2023-11-21T02:36:50;99411.16;;;-0.07;77.08
42003;BME280;27693;50.506;30.832;2023-11-21T02:37:53;99409.50;;;-0.11;77.23
42003;BME280;27693;50.506;30.832;2023-11-21T02:38:57;99400.14;;;-0.15;77.15
42003;BME280;27693;50.506;30.832;2023-11-21T02:39:59;99412.08;;;-0.17;77.22
42003;BME280;27693;50.506;30.832;2023-11-21T02:41:02;99407.84;;;-0.20;77.40
42003;BME280;27693;50.506;30.832;2023-11-21T02:42:07;99414.69;;;-0.22;77.27
42003;BME280;27693;50.506;30.832;2023-11-21T02:43:10;99411.28;;;-0.24;77.15
42003;BME280;27693;50.506;30.832;2023-11-21T02:44:12;99413.03;;;-0.29;77.06
42003;BME280;27693;50.506;30.832;2023-11-21T02:45:14;99419.84;;;-0.28;77.24
42003;BME280;27693;50.506;30.832;2023-11-21T02:46:19;99411.29;;;-0.27;77.46
42003;BME280;27693;50.506;30.832;2023-11-21T02:47:22;99415.55;;;-0.23;77.70
42003;BME280;27693;50.506;30.832;2023-11-21T02:48:27;99418.97;;;-0.25;77.81
42003;BME280;27693;50.506;30.832;2023-11-21T02:49:29;99414.70;;;-0.25;77.93
42003;BME280;27693;50.506;30.832;2023-11-21T02:50:33;99417.27;;;-0.26;77.88
42003;BME280;27693;50.506;30.832;2023-11-21T02:51:37;99414.70;;;-0.25;77.71
42003;BME280;27693;50.506;30.832;2023-11-21T02:52:41;99418.95;;;-0.24;77.65
42003;BME280;27693;50.506;30.832;2023-11-21T02:53:43;99419.00;;;-0.30;77.58
42003;BME280;27693;50.506;30.832;2023-11-21T02:54:48;99420.74;;;-0.35;77.41
42003;BME280;27693;50.506;30.832;2023-11-21T02:55:50;99415.63;;;-0.38;77.42
42003;BME280;27693;50.506;30.832;2023-11-21T02:56:54;99419.06;;;-0.41;77.44
42003;BME280;27693;50.506;30.832;2023-11-21T02:57:56;99416.48;;;-0.39;77.89
42003;BME280;27693;50.506;30.832;2023-11-21T02:59:00;99419.06;;;-0.41;78.20
42003;BME280;27693;50.506;30.832;2023-11-21T03:00:03;99418.22;;;-0.41;78.15
42003;BME280;27693;50.506;30.832;2023-11-21T03:01:09;99419.05;;;-0.39;78.40
42003;BME280;27693;50.506;30.832;2023-11-21T03:02:12;99420.74;;;-0.35;78.18
42003;BME280;27693;50.506;30.832;2023-11-21T03:03:15;99419.86;;;-0.34;78.14
42003;BME280;27693;50.506;30.832;2023-11-21T03:04:17;99430.08;;;-0.34;78.20
42003;BME280;27693;50.506;30.832;2023-11-21T03:05:19;99433.50;;;-0.34;78.40
42003;BME280;27693;50.506;30.832;2023-11-21T03:06:22;99424.95;;;-0.29;78.46
42003;BME280;27693;50.506;30.832;2023-11-21T03:07:25;99423.22;;;-0.26;78.36
42003;BME280;27693;50.506;30.832;2023-11-21T03:08:27;99435.15;;;-0.25;78.18
42003;BME280;27693;50.506;30.832;2023-11-21T03:09:30;99436.86;;;-0.27;78.05
42003;BME280;27693;50.506;30.832;2023-11-21T03:10:33;99436.86;;;-0.27;78.05
42003;BME280;27693;50.506;30.832;2023-11-21T03:11:35;99430.12;;;-0.37;77.98
42003;BME280;27693;50.506;30.832;2023-11-21T03:12:38;99435.23;;;-0.37;78.10
42003;BME280;27693;50.506;30.832;2023-11-21T03:13:41;99427.56;;;-0.37;78.14
42003;BME280;27693;50.506;30.832;2023-11-21T03:14:44;99432.66;;;-0.36;78.21
42003;BME280;27693;50.506;30.832;2023-11-21T03:15:46;99430.08;;;-0.34;78.24
42003;BME280;27693;50.506;30.832;2023-11-21T03:16:49;99432.63;;;-0.31;78.26
42003;BME280;27693;50.506;30.832;2023-11-21T03:17:52;99436.89;;;-0.30;78.22
42003;BME280;27693;50.506;30.832;2023-11-21T03:18:54;99434.32;;;-0.28;78.02
42003;BME280;27693;50.506;30.832;2023-11-21T03:19:58;99435.19;;;-0.28;77.96
42003;BME280;27693;50.506;30.832;2023-11-21T03:21:00;99439.43;;;-0.28;78.22
42003;BME280;27693;50.506;30.832;2023-11-21T03:22:03;99436.04;;;-0.29;78.26
42003;BME280;27693;50.506;30.832;2023-11-21T03:23:06;99436.86;;;-0.27;78.20
42003;BME280;27693;50.506;30.832;2023-11-21T03:24:08;99436.02;;;-0.30;78.31
42003;BME280;27693;50.506;30.832;2023-11-21T03:25:11;99451.36;;;-0.27;78.11
42003;BME280;27693;50.506;30.832;2023-11-21T03:26:14;99445.41;;;-0.31;78.04
42003;BME280;27693;50.506;30.832;2023-11-21T03:27:17;99445.41;;;-0.31;77.97
42003;BME280;27693;50.506;30.832;2023-11-21T03:28:19;99435.20;;;-0.34;77.92
42003;BME280;27693;50.506;30.832;2023-11-21T03:29:21;99436.91;;;-0.31;77.94
42003;BME280;27693;50.506;30.832;2023-11-21T03:30:24;99435.19;;;-0.31;78.06
42003;BME280;27693;50.506;30.832;2023-11-21T03:31:26;99439.47;;;-0.31;78.02
42003;BME280;27693;50.506;30.832;2023-11-21T03:32:29;99447.08;;;-0.27;78.07
42003;BME280;27693;50.506;30.832;2023-11-21T03:33:33;99439.43;;;-0.28;78.02
42003;BME280;27693;50.506;30.832;2023-11-21T03:34:52;99443.67;;;-0.26;77.74
42003;BME280;27693;50.506;30.832;2023-11-21T03:35:43;99441.97;;;-0.27;77.56
42003;BME280;27693;50.506;30.832;2023-11-21T03:36:47;99436.86;;;-0.27;77.54
42003;BME280;27693;50.506;30.832;2023-11-21T03:37:49;99436.85;;;-0.24;77.22
42003;BME280;27693;50.506;30.832;2023-11-21T03:38:51;99441.11;;;-0.23;77.14
42003;BME280;27693;50.506;30.832;2023-11-21T03:39:55;99430.88;;;-0.23;77.26
42003;BME280;27693;50.506;30.832;2023-11-21T03:40:58;99438.55;;;-0.23;77.43
42003;BME280;27693;50.506;30.832;2023-11-21T03:42:03;99443.63;;;-0.20;77.46
42003;BME280;27693;50.506;30.832;2023-11-21T03:43:05;99435.14;;;-0.22;77.34
42003;BME280;27693;50.506;30.832;2023-11-21T03:44:08;99445.37;;;-0.22;77.39
42003;BME280;27693;50.506;30.832;2023-11-21T03:45:11;99443.67;;;-0.23;77.26
42003;BME280;27693;50.506;30.832;2023-11-21T03:46:15;99448.74;;;-0.20;77.26
42003;BME280;27693;50.506;30.832;2023-11-21T03:47:18;99436.81;;;-0.18;77.36
42003;BME280;27693;50.506;30.832;2023-11-21T03:48:22;99441.12;;;-0.24;76.88
42003;BME280;27693;50.506;30.832;2023-11-21T03:49:24;99441.12;;;-0.24;76.88
42003;BME280;27693;50.506;30.832;2023-11-21T03:50:29;99446.19;;;-0.20;76.90
42003;BME280;27693;50.506;30.832;2023-11-21T03:51:32;99452.19;;;-0.21;76.93
42003;BME280;27693;50.506;30.832;2023-11-21T03:52:38;99446.20;;;-0.21;76.83
42003;BME280;27693;50.506;30.832;2023-11-21T03:53:41;99447.08;;;-0.21;77.07
42003;BME280;27693;50.506;30.832;2023-11-21T03:54:45;99451.36;;;-0.24;77.26
42003;BME280;27693;50.506;30.832;2023-11-21T03:55:47;99450.50;;;-0.26;77.37
42003;BME280;27693;50.506;30.832;2023-11-21T03:56:49;99454.75;;;-0.27;77.19
42003;BME280;27693;50.506;30.832;2023-11-21T03:57:52;99450.51;;;-0.29;77.10
42003;BME280;27693;50.506;30.832;2023-11-21T03:58:54;99449.69;;;-0.31;77.04
42003;BME280;27693;50.506;30.832;2023-11-21T03:59:57;99452.27;;;-0.36;77.03
42003;BME280;27693;50.506;30.832;2023-11-21T04:00:59;99453.14;;;-0.39;77.06
42003;BME280;27693;50.506;30.832;2023-11-21T04:02:01;99448.03;;;-0.39;77.16
42003;BME280;27693;50.506;30.832;2023-11-21T04:03:04;99455.68;;;-0.37;77.28
42003;BME280;27693;50.506;30.832;2023-11-21T04:04:07;99449.72;;;-0.39;77.41
42003;BME280;27693;50.506;30.832;2023-11-21T04:05:09;99444.66;;;-0.50;77.81
42003;BME280;27693;50.506;30.832;2023-11-21T04:06:12;99448.09;;;-0.54;77.68
42003;BME280;27693;50.506;30.832;2023-11-21T04:07:14;99443.86;;;-0.60;78.04
42003;BME280;27693;50.506;30.832;2023-11-21T04:08:16;99450.69;;;-0.63;78.07
42003;BME280;27693;50.506;30.832;2023-11-21T04:09:20;99443.89;;;-0.66;78.09
42003;BME280;27693;50.506;30.832;2023-11-21T04:10:23;99442.22;;;-0.70;78.02
42003;BME280;27693;50.506;30.832;2023-11-21T04:11:25;99442.22;;;-0.70;77.98
42003;BME280;27693;50.506;30.832;2023-11-21T04:12:27;99442.21;;;-0.73;78.16
42003;BME280;27693;50.506;30.832;2023-11-21T04:13:30;99443.97;;;-0.85;78.61
42003;BME280;27693;50.506;30.832;2023-11-21T04:14:33;99440.61;;;-0.99;79.14
42003;BME280;27693;50.506;30.832;2023-11-21T04:15:35;99437.25;;;-1.14;79.97
42003;BME280;27693;50.506;30.832;2023-11-21T04:16:38;99441.53;;;-1.23;80.48
42003;BME280;27693;50.506;30.832;2023-11-21T04:17:42;99445.80;;;-1.24;80.48
42003;BME280;27693;50.506;30.832;2023-11-21T04:18:44;99446.64;;;-1.20;80.64
42003;BME280;27693;50.506;30.832;2023-11-21T04:19:46;99454.27;;;-1.13;80.94
42003;BME280;27693;50.506;30.832;2023-11-21T04:20:50;99458.52;;;-1.10;80.94
42003;BME280;27693;50.506;30.832;2023-11-21T04:21:52;99461.11;;;-1.27;81.36
42003;BME280;27693;50.506;30.832;2023-11-21T04:22:54;99460.27;;;-1.32;81.62
42003;BME280;27693;50.506;30.832;2023-11-21T04:23:57;99461.12;;;-1.33;81.90
42003;BME280;27693;50.506;30.832;2023-11-21T04:24:59;99450.91;;;-1.33;81.87
42003;BME280;27693;50.506;30.832;2023-11-21T04:26:02;99454.32;;;-1.31;81.93
42003;BME280;27693;50.506;30.832;2023-11-21T04:27:05;99450.89;;;-1.30;82.08
42003;BME280;27693;50.506;30.832;2023-11-21T04:28:07;99456.02;;;-1.33;82.35
42003;BME280;27693;50.506;30.832;2023-11-21T04:29:09;99453.46;;;-1.33;82.29
42003;BME280;27693;50.506;30.832;2023-11-21T04:30:14;99454.30;;;-1.25;82.26
42003;BME280;27693;50.506;30.832;2023-11-21T04:31:17;99462.78;;;-1.23;82.34
42003;BME280;27693;50.506;30.832;2023-11-21T04:32:19;99462.77;;;-1.17;82.21
42003;BME280;27693;50.506;30.832;2023-11-21T04:33:22;99463.64;;;-1.11;82.03
42003;BME280;27693;50.506;30.832;2023-11-21T04:34:24;99468.73;;;-1.07;81.74
42003;BME280;27693;50.506;30.832;2023-11-21T04:35:26;99468.73;;;-1.07;81.43
42003;BME280;27693;50.506;30.832;2023-11-21T04:36:29;99471.27;;;-1.01;81.26
42003;BME280;27693;50.506;30.832;2023-11-21T04:37:32;99473.80;;;-0.98;81.23
42003;BME280;27693;50.506;30.832;2023-11-21T04:38:35;99479.75;;;-0.91;81.03
42003;BME280;27693;50.506;30.832;2023-11-21T04:39:38;99475.48;;;-0.90;80.82
42003;BME280;27693;50.506;30.832;2023-11-21T04:40:40;99481.45;;;-0.90;80.39
42003;BME280;27693;50.506;30.832;2023-11-21T04:41:43;99477.20;;;-0.91;79.79
42003;BME280;27693;50.506;30.832;2023-11-21T04:42:46;99479.73;;;-0.92;79.43
42003;BME280;27693;50.506;30.832;2023-11-21T04:43:48;99476.34;;;-0.93;79.06
42003;BME280;27693;50.506;30.832;2023-11-21T04:44:51;99478.05;;;-0.95;78.85
42003;BME280;27693;50.506;30.832;2023-11-21T04:45:55;99481.45;;;-0.93;78.53
42003;BME280;27693;50.506;30.832;2023-11-21T04:46:57;99484.86;;;-0.94;78.24
42003;BME280;27693;50.506;30.832;2023-11-21T04:48:00;99483.15;;;-0.95;78.12
42003;BME280;27693;50.506;30.832;2023-11-21T04:49:02;99486.55;;;-0.96;78.05
42003;BME280;27693;50.506;30.832;2023-11-21T04:50:06;99481.45;;;-0.93;78.01
42003;BME280;27693;50.506;30.832;2023-11-21T04:51:08;99485.73;;;-0.93;77.89
42003;BME280;27693;50.506;30.832;2023-11-21T04:52:10;99483.15;;;-0.95;77.79
42003;BME280;27693;50.506;30.832;2023-11-21T04:53:13;99481.45;;;-0.93;77.72
42003;BME280;27693;50.506;30.832;2023-11-21T04:54:17;99484.88;;;-0.97;77.64
42003;BME280;27693;50.506;30.832;2023-11-21T04:55:19;99493.39;;;-0.98;77.64
42003;BME280;27693;50.506;30.832;2023-11-21T04:56:21;99489.98;;;-0.97;77.72
42003;BME280;27693;50.506;30.832;2023-11-21T04:57:23;99491.66;;;-0.96;77.66
42003;BME280;27693;50.506;30.832;2023-11-21T04:58:25;99494.22;;;-0.96;77.65
42003;BME280;27693;50.506;30.832;2023-11-21T04:59:28;99495.07;;;-0.94;77.56
42003;BME280;27693;50.506;30.832;2023-11-21T05:00:32;99502.73;;;-0.94;77.53
42003;BME280;27693;50.506;30.832;2023-11-21T05:01:35;99501.03;;;-0.92;77.45
42003;BME280;27693;50.506;30.832;2023-11-21T05:02:40;99496.78;;;-0.93;77.37
42003;BME280;27693;50.506;30.832;2023-11-21T05:03:43;99501.04;;;-0.97;77.35
42003;BME280;27693;50.506;30.832;2023-11-21T05:04:47;99499.33;;;-0.96;77.39
42003;BME280;27693;50.506;30.832;2023-11-21T05:05:49;99507.86;;;-1.00;77.40
42003;BME280;27693;50.506;30.832;2023-11-21T05:06:52;99501.89;;;-1.02;77.50
42003;BME280;27693;50.506;30.832;2023-11-21T05:07:54;99506.16;;;-1.01;77.71
42003;BME280;27693;50.506;30.832;2023-11-21T05:08:56;99503.59;;;-1.01;77.77
42003;BME280;27693;50.506;30.832;2023-11-21T05:09:59;99506.16;;;-0.98;77.86
42003;BME280;27693;50.506;30.832;2023-11-21T05:11:01;99508.70;;;-0.97;77.96
42003;BME280;27693;50.506;30.832;2023-11-21T05:12:05;99511.27;;;-0.93;77.97
42003;BME280;27693;50.506;30.832;2023-11-21T05:13:07;99510.42;;;-0.97;77.86
42003;BME280;27693;50.506;30.832;2023-11-21T05:14:13;99510.44;;;-1.03;77.87
42003;BME280;27693;50.506;30.832;2023-11-21T05:15:17;99511.28;;;-1.09;77.95
42003;BME280;27693;50.506;30.832;2023-11-21T05:16:19;99507.86;;;-1.09;78.21
42003;BME280;27693;50.506;30.832;2023-11-21T05:17:22;99517.23;;;-1.05;78.35
42003;BME280;27693;50.506;30.832;2023-11-21T05:18:25;99516.38;;;-1.07;78.37
42003;BME280;27693;50.506;30.832;2023-11-21T05:19:31;99515.52;;;-1.09;78.51
42003;BME280;27693;50.506;30.832;2023-11-21T05:20:35;99512.98;;;-1.11;78.67
42003;BME280;27693;50.506;30.832;2023-11-21T05:21:40;99507.02;;;-1.05;78.90
42003;BME280;27693;50.506;30.832;2023-11-21T05:22:42;99518.09;;;-1.03;78.95
42003;BME280;27693;50.506;30.832;2023-11-21T05:23:46;99517.22;;;-1.02;79.05
42003;BME280;27693;50.506;30.832;2023-11-21T05:24:48;99531.70;;;-0.98;79.22
42003;BME280;27693;50.506;30.832;2023-11-21T05:25:50;99529.12;;;-0.95;79.28
42003;BME280;27693;50.506;30.832;2023-11-21T05:26:53;99530.83;;;-0.94;79.28
42003;BME280;27693;50.506;30.832;2023-11-21T05:27:56;99532.54;;;-0.90;79.32
42003;BME280;27693;50.506;30.832;2023-11-21T05:29:01;99541.05;;;-0.91;79.30
42003;BME280;27693;50.506;30.832;2023-11-21T05:30:05;99536.78;;;-0.90;79.41
42003;BME280;27693;50.506;30.832;2023-11-21T05:31:08;99542.73;;;-0.87;79.62
42003;BME280;27693;50.506;30.832;2023-11-21T05:32:12;99544.45;;;-0.83;79.71